Time;durP1;ratioP1;P1;durP2;ratioP2;P2;SDS_P1;SDS_P2;PMS_P1;PMS_P2;Temp;Humidity;BMP_temperature;BMP_pressure;BME280_temperature;BME280_humidity;BME280_pressure;Samples;Min_cycle;Max_cycle;Signal;HPM_P1;HPM_P2
2021/10/31 00:01:49;;;;;;;5.50;2.33;;;8.20;99.90;;;;;;5069413;28;20450;-68
2021/10/31 00:04:16;;;;;;;11.27;3.30;;;8.20;99.90;;;;;;5089351;28;20132;-67
2021/10/31 00:06:44;;;;;;;16.23;3.35;;;8.20;99.90;;;;;;5091087;28;20040;-66
2021/10/31 00:09:11;;;;;;;9.05;3.00;;;8.20;99.90;;;;;;5071236;28;20056;-67
2021/10/31 00:11:38;;;;;;;9.50;3.42;;;8.20;99.90;;;;;;5089226;28;20519;-67
2021/10/31 00:14:05;;;;;;;9.45;3.67;;;8.20;99.90;;;;;;5089216;28;20047;-68
2021/10/31 00:16:32;;;;;;;12.85;3.00;;;8.20;99.90;;;;;;5072344;28;20044;-67
2021/10/31 00:19:02;;;;;;;9.88;3.38;;;8.20;99.90;;;;;;5089626;28;20552;-67
2021/10/31 00:21:29;;;;;;;13.65;3.95;;;8.20;99.90;;;;;;5070197;28;20194;-66
2021/10/31 00:23:56;;;;;;;8.60;2.85;;;8.20;99.90;;;;;;5089844;28;20535;-67
2021/10/31 00:26:24;;;;;;;8.40;3.20;;;8.20;99.90;;;;;;5056594;28;20040;-67
2021/10/31 00:28:51;;;;;;;9.32;2.92;;;8.10;99.90;;;;;;5089146;28;20044;-67
2021/10/31 00:31:18;;;;;;;7.03;3.30;;;8.10;99.90;;;;;;5091777;28;20044;-67
2021/10/31 00:33:46;;;;;;;7.53;3.50;;;8.10;99.90;;;;;;5073196;28;20477;-67
2021/10/31 00:36:14;;;;;;;11.10;3.28;;;8.00;99.90;;;;;;5089469;28;20048;-66
2021/10/31 00:38:41;;;;;;;8.18;2.70;;;8.00;99.90;;;;;;5089647;28;20056;-67
2021/10/31 00:41:09;;;;;;;9.52;3.05;;;8.00;99.90;;;;;;5089714;28;20632;-68
2021/10/31 00:43:36;;;;;;;7.88;2.67;;;8.00;99.90;;;;;;5090343;28;20048;-66
2021/10/31 00:46:05;;;;;;;8.52;2.63;;;7.90;99.90;;;;;;5090972;28;20079;-67
2021/10/31 00:48:33;;;;;;;5.57;2.60;;;7.90;99.90;;;;;;5089536;28;20048;-68
2021/10/31 00:51:00;;;;;;;7.30;2.70;;;7.90;99.90;;;;;;5091046;28;20122;-67
2021/10/31 00:53:27;;;;;;;8.65;2.58;;;7.90;99.90;;;;;;5089740;28;20063;-69
2021/10/31 00:55:54;;;;;;;4.93;2.40;;;7.90;99.90;;;;;;5089896;28;20040;-67
2021/10/31 00:58:23;;;;;;;5.93;2.53;;;7.90;99.90;;;;;;5088724;28;20051;-67
2021/10/31 01:00:49;;;;;;;6.80;2.63;;;7.80;99.90;;;;;;5090279;28;20044;-67
2021/10/31 01:03:17;;;;;;;7.97;2.35;;;7.80;99.90;;;;;;5089554;28;20044;-67
2021/10/31 01:05:51;;;;;;;8.80;2.72;;;7.80;99.90;;;;;;5071795;28;20070;-67
2021/10/31 01:08:29;;;;;;;8.13;2.58;;;7.80;99.90;;;;;;5071468;28;20096;-67
2021/10/31 01:11:26;;;;;;;11.30;2.45;;;7.80;99.90;;;;;;5090463;28;20072;-67
2021/10/31 01:14:12;;;;;;;8.25;2.97;;;7.80;99.90;;;;;;5081386;28;20051;-67
2021/10/31 01:17:05;;;;;;;7.03;3.05;;;7.90;99.90;;;;;;5079426;28;20051;-68
2021/10/31 01:19:48;;;;;;;9.38;3.28;;;8.00;99.90;;;;;;5089734;28;20052;-68
2021/10/31 01:22:29;;;;;;;6.80;3.00;;;8.10;99.90;;;;;;5087003;28;20079;-67
2021/10/31 01:25:08;;;;;;;8.13;2.42;;;8.20;99.90;;;;;;5089041;28;20040;-67
2021/10/31 01:27:58;;;;;;;6.30;2.60;;;8.20;99.90;;;;;;5088893;28;20055;-67
2021/10/31 01:30:25;;;;;;;;;;;8.30;99.90;;;;;;5088619;28;20527;-66
2021/10/31 01:33:13;;;;;;;11.25;2.75;;;8.40;99.90;;;;;;5089926;28;19924;-68
2021/10/31 01:36:17;;;;;;;8.25;2.92;;;8.40;99.90;;;;;;5088427;28;20050;-66
2021/10/31 01:38:46;;;;;;;8.88;2.40;;;8.50;99.90;;;;;;5089332;28;20408;-67
2021/10/31 01:41:17;;;;;;;8.90;3.05;;;8.50;99.90;;;;;;5071306;28;20055;-67
2021/10/31 01:43:59;;;;;;;7.57;3.40;;;8.60;99.90;;;;;;5089980;28;20462;-66
2021/10/31 01:47:15;;;;;;;7.38;2.50;;;8.60;99.90;;;;;;5088101;28;20415;-68
2021/10/31 01:49:59;;;;;;;9.02;2.50;;;8.70;99.90;;;;;;5001788;28;20066;-68
2021/10/31 01:52:30;;;;;;;6.82;2.30;;;8.70;99.90;;;;;;5053782;28;20048;-68
2021/10/31 01:55:02;;;;;;;3.80;1.77;;;8.70;99.90;;;;;;5088321;28;20040;-68
2021/10/31 01:57:29;;;;;;;8.65;2.20;;;8.70;99.90;;;;;;5087516;28;20086;-68
2021/10/31 02:00:03;;;;;;;9.18;2.38;;;8.70;99.90;;;;;;5087686;28;20156;-67
2021/10/31 02:02:32;;;;;;;5.40;2.35;;;8.70;99.90;;;;;;5087549;28;20047;-67
2021/10/31 02:05:00;;;;;;;7.15;1.92;;;8.70;99.90;;;;;;5068480;28;20056;-66
2021/10/31 02:07:27;;;;;;;8.20;2.25;;;8.70;99.90;;;;;;5086228;28;20454;-67
2021/10/31 02:09:55;;;;;;;7.50;2.75;;;8.70;99.90;;;;;;5087344;28;20043;-67
2021/10/31 02:12:22;;;;;;;6.53;2.78;;;8.70;99.90;;;;;;5089034;28;20044;-68
2021/10/31 02:14:51;;;;;;;10.77;2.55;;;8.70;99.90;;;;;;5088658;28;20071;-68
2021/10/31 02:17:18;;;;;;;10.32;3.03;;;8.70;99.90;;;;;;5086279;28;20052;-67
2021/10/31 02:19:46;;;;;;;8.73;2.55;;;8.70;99.90;;;;;;5088470;28;20072;-67
2021/10/31 02:22:20;;;;;;;14.15;4.18;;;8.70;99.90;;;;;;5088923;28;20070;-67
2021/10/31 02:24:47;;;;;;;5.90;2.22;;;8.70;99.90;;;;;;5088616;28;20052;-67
2021/10/31 02:27:20;;;;;;;6.82;2.13;;;8.80;99.90;;;;;;5070804;28;20054;-67
2021/10/31 02:29:51;;;;;;;6.35;2.17;;;8.80;99.90;;;;;;5089929;28;20487;-67
2021/10/31 02:32:19;;;;;;;7.38;2.28;;;8.90;99.90;;;;;;5090564;28;20056;-67
2021/10/31 02:34:46;;;;;;;6.35;2.20;;;8.90;99.90;;;;;;5088038;28;20055;-67
2021/10/31 02:37:13;;;;;;;6.88;2.80;;;9.00;99.90;;;;;;5094013;28;20506;-66
2021/10/31 02:39:41;;;;;;;6.78;1.80;;;9.10;99.90;;;;;;5093941;28;20040;-68
2021/10/31 02:42:09;;;;;;;10.32;2.50;;;9.20;99.90;;;;;;5091444;28;20180;-66
2021/10/31 02:44:37;;;;;;;6.28;2.63;;;9.30;99.90;;;;;;5091182;28;20044;-67
2021/10/31 02:47:07;;;;;;;6.57;1.85;;;9.30;99.90;;;;;;5091778;28;20044;-68
2021/10/31 02:49:34;;;;;;;13.02;2.30;;;9.40;99.90;;;;;;5092334;28;20548;-68
2021/10/31 02:52:30;;;;;;;4.40;1.80;;;9.50;99.90;;;;;;5075450;28;20139;-67
2021/10/31 02:55:44;;;;;;;6.55;2.15;;;9.50;99.90;;;;;;5059200;28;20132;-66
2021/10/31 02:58:18;;;;;;;11.85;2.92;;;9.50;99.90;;;;;;5089051;28;20055;-68
2021/10/31 03:00:46;;;;;;;14.40;2.33;;;9.50;99.90;;;;;;5091217;28;20055;-67
2021/10/31 03:03:15;;;;;;;9.70;2.42;;;9.60;99.90;;;;;;5074120;28;20048;-68
2021/10/31 03:05:47;;;;;;;15.40;2.63;;;9.60;99.90;;;;;;5070340;28;20041;-67
2021/10/31 03:08:14;;;;;;;8.05;2.70;;;9.50;99.90;;;;;;5070390;28;20052;-67
2021/10/31 03:10:52;;;;;;;6.53;2.17;;;9.60;99.90;;;;;;5091539;28;20048;-67
2021/10/31 03:13:19;;;;;;;7.38;2.45;;;9.60;99.90;;;;;;5074501;28;20054;-66
2021/10/31 03:15:46;;;;;;;9.07;2.50;;;9.70;99.90;;;;;;5092127;28;20060;-66
2021/10/31 03:18:15;;;;;;;6.20;2.28;;;9.70;99.90;;;;;;5074377;28;20036;-67
2021/10/31 03:20:42;;;;;;;9.43;2.45;;;9.70;99.90;;;;;;5092093;28;20415;-68
2021/10/31 03:23:09;;;;;;;8.95;2.45;;;9.70;99.90;;;;;;5093032;28;20048;-67
2021/10/31 03:25:36;;;;;;;11.65;2.80;;;9.70;99.90;;;;;;5092378;28;20115;-68
2021/10/31 03:28:05;;;;;;;9.35;3.45;;;9.70;99.90;;;;;;5091558;28;20055;-68
2021/10/31 03:30:32;;;;;;;15.15;2.58;;;9.80;99.90;;;;;;5092553;28;20109;-69
2021/10/31 03:33:01;;;;;;;10.88;2.78;;;9.90;99.90;;;;;;5073096;28;20056;-67
2021/10/31 03:35:30;;;;;;;8.50;2.05;;;10.00;99.90;;;;;;5090626;28;20058;-68
2021/10/31 03:37:57;;;;;;;6.63;2.42;;;10.10;99.90;;;;;;5091402;28;20455;-66
2021/10/31 03:40:24;;;;;;;8.80;2.95;;;10.20;99.90;;;;;;5090060;28;20059;-67
2021/10/31 03:42:52;;;;;;;12.50;3.50;;;10.20;99.90;;;;;;5091873;28;20491;-66
2021/10/31 03:45:19;;;;;;;6.72;2.97;;;10.30;99.90;;;;;;5090653;28;20047;-67
2021/10/31 03:47:48;;;;;;;8.75;2.67;;;10.40;99.90;;;;;;5073200;28;20090;-67
2021/10/31 03:50:16;;;;;;;5.30;2.30;;;10.40;99.90;;;;;;5090118;28;20404;-67
2021/10/31 03:52:44;;;;;;;8.40;2.20;;;10.50;99.90;;;;;;5090627;28;20496;-67
2021/10/31 03:55:11;;;;;;;10.90;2.70;;;10.50;99.90;;;;;;5091010;28;20127;-67
2021/10/31 03:57:38;;;;;;;9.02;3.33;;;10.50;99.90;;;;;;5089580;28;20044;-68
2021/10/31 04:00:09;;;;;;;5.32;2.45;;;10.50;99.90;;;;;;5072896;28;20126;-67
2021/10/31 04:02:37;;;;;;;8.85;2.22;;;10.50;99.90;;;;;;5074684;28;20048;-70
2021/10/31 04:05:08;;;;;;;11.13;3.05;;;10.50;99.90;;;;;;5089342;28;20052;-67
2021/10/31 04:07:35;;;;;;;14.77;3.15;;;10.50;99.90;;;;;;5089708;28;20040;-67
2021/10/31 04:10:06;;;;;;;8.20;2.85;;;10.50;99.90;;;;;;5073331;28;20044;-66
2021/10/31 04:12:34;;;;;;;9.85;2.35;;;10.50;99.90;;;;;;5089869;28;20367;-67
2021/10/31 04:15:02;;;;;;;9.15;2.13;;;10.50;99.90;;;;;;5070659;28;20072;-68
2021/10/31 04:17:30;;;;;;;10.68;2.20;;;10.50;99.90;;;;;;5089284;28;20453;-67
2021/10/31 04:19:57;;;;;;;7.30;3.33;;;10.50;99.90;;;;;;5089724;28;20455;-67
2021/10/31 04:22:24;;;;;;;16.33;2.92;;;10.60;99.90;;;;;;5089919;28;20052;-67
2021/10/31 04:24:51;;;;;;;8.55;2.17;;;10.60;99.90;;;;;;5090091;28;20056;-67
2021/10/31 04:27:19;;;;;;;13.35;2.55;;;10.60;99.90;;;;;;5091358;28;20487;-69
2021/10/31 04:29:49;;;;;;;11.82;3.22;;;10.60;99.90;;;;;;5073270;28;20117;-67
2021/10/31 04:32:18;;;;;;;9.35;2.60;;;10.60;99.90;;;;;;5089871;28;20115;-67
2021/10/31 04:34:47;;;;;;;8.10;2.28;;;10.60;99.90;;;;;;5090676;28;20048;-67
2021/10/31 04:37:14;;;;;;;9.95;3.22;;;10.60;99.90;;;;;;5089518;28;20139;-67
2021/10/31 04:39:42;;;;;;;11.80;2.95;;;10.70;99.90;;;;;;5072793;28;20178;-67
2021/10/31 04:42:11;;;;;;;11.38;3.60;;;10.70;99.90;;;;;;5089276;28;20062;-67
2021/10/31 04:44:39;;;;;;;9.15;2.83;;;10.70;99.90;;;;;;5088298;28;20040;-68
2021/10/31 04:47:06;;;;;;;10.02;2.38;;;10.70;99.90;;;;;;5072517;28;20044;-69
2021/10/31 04:49:34;;;;;;;11.68;2.15;;;10.70;99.90;;;;;;5073445;28;20051;-68
2021/10/31 04:52:04;;;;;;;7.03;1.77;;;10.70;99.90;;;;;;5072683;28;20097;-67
2021/10/31 04:54:31;;;;;;;9.45;2.55;;;10.80;99.90;;;;;;5089107;28;20052;-68
2021/10/31 04:56:58;;;;;;;11.38;2.80;;;10.80;99.90;;;;;;5090325;28;20055;-68
2021/10/31 04:59:25;;;;;;;9.45;2.58;;;10.80;99.90;;;;;;5089078;28;20048;-67
2021/10/31 05:01:53;;;;;;;13.00;3.03;;;10.90;99.90;;;;;;5088334;28;20162;-67
2021/10/31 05:04:21;;;;;;;10.60;2.70;;;10.90;99.90;;;;;;5088049;28;20056;-68
2021/10/31 05:06:49;;;;;;;13.48;2.38;;;10.90;99.90;;;;;;5090203;28;20044;-67
2021/10/31 05:09:16;;;;;;;11.75;2.38;;;11.00;99.90;;;;;;5086708;28;20069;-67
2021/10/31 05:11:43;;;;;;;10.98;2.63;;;11.00;99.90;;;;;;5090085;28;20461;-67
2021/10/31 05:14:10;;;;;;;14.25;2.67;;;11.00;99.90;;;;;;5069246;28;20060;-67
2021/10/31 05:16:38;;;;;;;12.27;4.75;;;11.00;99.90;;;;;;5089963;28;20092;-72
2021/10/31 05:19:05;;;;;;;24.85;13.95;;;11.10;99.90;;;;;;5096241;28;20425;-68
2021/10/31 05:21:32;;;;;;;10.55;4.55;;;11.20;99.90;;;;;;5089809;28;20051;-67
2021/10/31 05:24:00;;;;;;;8.20;2.88;;;11.10;99.90;;;;;;5089295;28;20467;-68
2021/10/31 05:26:27;;;;;;;12.75;2.60;;;11.20;99.90;;;;;;5083573;28;20143;-67
2021/10/31 05:28:54;;;;;;;10.90;3.08;;;11.20;99.90;;;;;;5088088;28;20059;-66
2021/10/31 05:31:23;;;;;;;7.95;2.15;;;11.20;99.90;;;;;;5071742;28;20040;-67
2021/10/31 05:33:52;;;;;;;13.23;2.15;;;11.20;99.90;;;;;;5089482;28;20070;-66
2021/10/31 05:36:21;;;;;;;9.57;2.63;;;11.30;99.90;;;;;;5088378;28;20051;-66
2021/10/31 05:38:48;;;;;;;9.77;3.10;;;11.30;99.90;;;;;;5074899;28;20051;-66
2021/10/31 05:41:15;;;;;;;7.20;2.03;;;11.40;99.90;;;;;;5071785;28;20080;-66
2021/10/31 05:43:44;;;;;;;16.10;3.50;;;11.40;99.90;;;;;;5088286;28;20051;-68
2021/10/31 05:46:12;;;;;;;20.10;4.25;;;11.40;99.90;;;;;;5071649;28;20048;-66
2021/10/31 05:48:39;;;;;;;11.40;2.55;;;11.40;99.90;;;;;;5089070;28;20056;-67
2021/10/31 05:51:06;;;;;;;14.18;3.55;;;11.40;99.90;;;;;;5088352;28;20138;-66
2021/10/31 05:53:33;;;;;;;12.35;2.55;;;11.40;99.90;;;;;;5070971;28;20047;-67
2021/10/31 05:56:04;;;;;;;9.55;2.72;;;11.40;99.90;;;;;;5088359;28;20047;-67
2021/10/31 05:58:34;;;;;;;8.38;2.40;;;11.50;99.90;;;;;;5087735;28;20131;-67
2021/10/31 06:01:01;;;;;;;5.85;2.58;;;11.50;99.90;;;;;;5070214;28;20051;-68
2021/10/31 06:03:29;;;;;;;7.15;2.38;;;11.50;99.90;;;;;;5070385;28;20066;-68
2021/10/31 06:05:59;;;;;;;8.40;2.40;;;11.50;99.90;;;;;;5086723;28;20052;-67
2021/10/31 06:08:26;;;;;;;9.82;2.50;;;11.50;99.90;;;;;;5089163;28;20498;-66
2021/10/31 06:10:54;;;;;;;11.60;2.60;;;11.60;99.90;;;;;;5089039;28;20048;-66
2021/10/31 06:13:35;;;;;;;14.77;3.35;;;11.60;99.90;;;;;;5088768;28;20044;-66
2021/10/31 06:16:06;;;;;;;9.45;2.50;;;11.70;99.90;;;;;;5086114;28;20498;-66
2021/10/31 06:18:34;;;;;;;9.15;2.50;;;11.70;99.90;;;;;;5055657;28;20048;-66
2021/10/31 06:21:02;;;;;;;10.95;2.50;;;11.70;99.90;;;;;;5051860;28;20507;-66
2021/10/31 06:23:31;;;;;;;6.72;2.40;;;11.70;99.90;;;;;;5082238;28;20498;-67
2021/10/31 06:25:59;;;;;;;13.90;2.60;;;11.70;99.90;;;;;;5086846;28;20131;-68
2021/10/31 06:28:27;;;;;;;8.63;2.90;;;11.70;99.90;;;;;;5088901;28;20074;-67
2021/10/31 06:30:56;;;;;;;9.88;3.10;;;11.70;99.90;;;;;;5088618;28;20051;-69
2021/10/31 06:33:23;;;;;;;11.23;2.60;;;11.70;99.90;;;;;;5088417;28;20495;-67
2021/10/31 06:35:50;;;;;;;10.10;2.60;;;11.70;99.90;;;;;;5087632;28;20487;-66
2021/10/31 06:38:18;;;;;;;10.43;2.78;;;11.70;99.90;;;;;;5075988;28;20044;-67
2021/10/31 06:40:46;;;;;;;10.60;3.42;;;11.70;99.90;;;;;;5087474;28;20092;-68
2021/10/31 06:43:13;;;;;;;10.75;3.53;;;11.70;99.90;;;;;;5089928;28;20116;-67
2021/10/31 06:45:40;;;;;;;10.23;2.30;;;11.80;99.90;;;;;;5087162;28;20097;-68
2021/10/31 06:48:08;;;;;;;30.30;3.80;;;11.70;99.90;;;;;;5070371;28;20129;-67
2021/10/31 06:50:35;;;;;;;9.13;2.30;;;11.70;99.90;;;;;;5089216;28;20101;-68
2021/10/31 06:53:04;;;;;;;9.77;2.42;;;11.70;99.90;;;;;;5088175;28;20059;-69
2021/10/31 06:55:32;;;;;;;8.27;2.50;;;11.70;99.90;;;;;;5087007;28;20067;-68
2021/10/31 06:57:59;;;;;;;8.90;2.63;;;11.70;99.90;;;;;;5072025;28;20052;-68
2021/10/31 07:00:26;;;;;;;12.45;2.45;;;11.70;99.90;;;;;;5088560;28;20090;-67
2021/10/31 07:02:53;;;;;;;7.85;2.90;;;11.70;99.90;;;;;;5089203;28;20376;-67
2021/10/31 07:05:21;;;;;;;7.45;2.03;;;11.60;99.90;;;;;;5089060;28;20098;-67
2021/10/31 07:07:48;;;;;;;11.25;2.45;;;11.60;99.90;;;;;;5070483;28;20406;-67
2021/10/31 07:10:16;;;;;;;10.80;2.20;;;11.60;99.90;;;;;;5086335;28;20040;-67
2021/10/31 07:12:46;;;;;;;7.72;2.22;;;11.60;99.90;;;;;;5070796;28;20429;-67
2021/10/31 07:15:13;;;;;;;6.38;1.83;;;11.60;99.90;;;;;;5089714;28;20051;-69
2021/10/31 07:17:40;;;;;;;7.97;2.22;;;11.60;99.90;;;;;;5090803;28;20066;-67
2021/10/31 07:20:08;;;;;;;11.23;2.30;;;11.50;99.90;;;;;;5091250;28;20044;-67
2021/10/31 07:22:35;;;;;;;6.15;1.70;;;11.60;99.90;;;;;;5091101;28;20058;-66
2021/10/31 07:25:03;;;;;;;10.85;1.83;;;11.50;99.90;;;;;;5092735;28;20108;-66
2021/10/31 07:27:31;;;;;;;4.35;1.40;;;11.60;99.90;;;;;;5075352;28;20052;-67
2021/10/31 07:29:58;;;;;;;4.65;1.75;;;11.50;99.90;;;;;;5090473;28;20056;-67
2021/10/31 07:32:25;;;;;;;4.10;1.60;;;11.50;99.90;;;;;;5091111;28;20211;-66
2021/10/31 07:34:52;;;;;;;8.23;1.60;;;11.50;99.90;;;;;;5090120;28;20052;-68
2021/10/31 07:37:19;;;;;;;5.38;1.90;;;11.50;99.90;;;;;;5091179;28;20480;-68
2021/10/31 07:39:49;;;;;;;5.00;1.38;;;11.50;99.90;;;;;;5091845;28;20394;-67
2021/10/31 07:42:16;;;;;;;3.58;1.20;;;11.50;99.90;;;;;;5092105;28;20070;-66
2021/10/31 07:44:44;;;;;;;3.40;1.33;;;11.50;99.90;;;;;;5069682;28;20469;-67
2021/10/31 07:47:11;;;;;;;3.08;1.25;;;11.50;99.90;;;;;;5057096;28;20074;-67
2021/10/31 07:49:38;;;;;;;3.47;1.35;;;11.60;99.90;;;;;;5091218;28;20071;-68
2021/10/31 07:52:06;;;;;;;4.28;1.52;;;11.50;99.90;;;;;;5073062;28;20856;-67
2021/10/31 07:54:33;;;;;;;4.25;1.50;;;11.50;99.90;;;;;;5091719;28;20044;-67
2021/10/31 07:57:06;;;;;;;3.35;1.20;;;11.60;99.90;;;;;;5090413;28;20097;-67
2021/10/31 07:59:33;;;;;;;4.30;1.55;;;11.60;99.90;;;;;;5090667;28;20482;-67
2021/10/31 08:02:04;;;;;;;6.55;2.28;;;11.60;99.90;;;;;;5091916;28;20131;-67
2021/10/31 08:04:32;;;;;;;4.82;1.40;;;11.60;99.90;;;;;;5091523;28;20040;-68
2021/10/31 08:06:59;;;;;;;5.15;2.13;;;11.60;99.90;;;;;;5089407;28;20559;-67
2021/10/31 08:09:26;;;;;;;3.53;1.40;;;11.70;99.90;;;;;;5089503;28;20051;-67
2021/10/31 08:11:53;;;;;;;9.75;1.92;;;11.60;99.90;;;;;;5090601;28;20056;-66
2021/10/31 08:14:20;;;;;;;6.75;1.77;;;11.60;99.90;;;;;;5089714;28;20040;-67
2021/10/31 08:16:47;;;;;;;6.93;1.77;;;11.70;99.90;;;;;;5088969;28;20040;-68
2021/10/31 08:19:15;;;;;;;4.03;1.80;;;11.70;99.90;;;;;;5091502;28;20101;-68
2021/10/31 08:21:42;;;;;;;4.43;1.83;;;11.70;99.90;;;;;;5072408;28;20092;-67
2021/10/31 08:24:09;;;;;;;2.83;1.80;;;11.80;99.90;;;;;;5088890;28;20051;-67
2021/10/31 08:26:36;;;;;;;2.75;1.40;;;11.80;99.90;;;;;;5088401;28;20051;-68
2021/10/31 08:29:04;;;;;;;7.13;2.15;;;11.80;99.90;;;;;;5090935;28;20036;-67
2021/10/31 08:31:33;;;;;;;2.90;1.77;;;11.80;99.90;;;;;;5089952;28;20122;-69
2021/10/31 08:34:01;;;;;;;6.20;2.45;;;11.80;99.90;;;;;;5091624;28;20136;-68
2021/10/31 08:36:28;;;;;;;9.20;2.30;;;11.80;99.90;;;;;;5089255;28;20491;-68
2021/10/31 08:38:56;;;;;;;5.07;2.00;;;11.90;99.90;;;;;;5089847;28;20506;-67
2021/10/31 08:41:24;;;;;;;10.68;2.78;;;11.90;99.90;;;;;;5089485;28;20087;-68
2021/10/31 08:43:53;;;;;;;6.55;3.22;;;11.90;99.90;;;;;;5072995;28;20564;-68
2021/10/31 08:46:20;;;;;;;6.50;2.40;;;12.00;99.90;;;;;;5091461;28;20174;-68
2021/10/31 08:48:47;;;;;;;5.93;3.10;;;12.00;99.90;;;;;;5090575;28;20055;-68
2021/10/31 08:51:15;;;;;;;4.47;2.75;;;12.00;99.90;;;;;;5088973;28;20047;-69
2021/10/31 08:53:42;;;;;;;5.50;2.65;;;12.00;99.90;;;;;;5072840;28;20040;-72
2021/10/31 08:56:13;;;;;;;5.40;1.85;;;12.00;99.90;;;;;;5090867;28;20044;-68
2021/10/31 08:58:40;;;;;;;8.95;2.17;;;12.10;99.90;;;;;;5089923;28;20121;-75
2021/10/31 09:01:09;;;;;;;6.47;2.47;;;12.10;99.90;;;;;;5070511;28;20414;-74
2021/10/31 09:03:37;;;;;;;6.65;2.72;;;12.10;99.90;;;;;;5089577;28;20048;-72
2021/10/31 09:06:05;;;;;;;6.72;2.20;;;12.10;99.90;;;;;;5055634;28;20044;-74
2021/10/31 09:08:32;;;;;;;7.00;2.00;;;12.10;99.90;;;;;;5090070;28;20040;-73
2021/10/31 09:10:59;;;;;;;7.32;2.20;;;12.20;99.90;;;;;;5091904;28;20483;-75
2021/10/31 09:13:26;;;;;;;7.00;2.10;;;12.20;99.90;;;;;;5090270;28;20050;-73
2021/10/31 09:15:53;;;;;;;4.68;1.98;;;12.30;99.90;;;;;;5087851;28;20503;-74
2021/10/31 09:18:20;;;;;;;8.88;2.33;;;12.30;99.90;;;;;;5088774;28;20051;-75
2021/10/31 09:20:48;;;;;;;5.63;2.08;;;12.30;99.90;;;;;;5089432;28;20419;-74
2021/10/31 09:23:15;;;;;;;5.28;2.45;;;12.40;99.90;;;;;;5088030;28;20044;-74
2021/10/31 09:25:42;;;;;;;7.95;2.55;;;12.40;99.90;;;;;;5085250;28;20048;-74
2021/10/31 09:28:09;;;;;;;7.57;2.55;;;12.40;99.90;;;;;;5090338;28;20468;-74
2021/10/31 09:30:41;;;;;;;7.93;3.05;;;12.40;99.90;;;;;;5088674;28;20036;-74
2021/10/31 09:33:10;;;;;;;8.30;2.40;;;12.40;99.90;;;;;;5072107;28;20495;-73
2021/10/31 09:35:47;;;;;;;5.60;2.15;;;12.40;99.90;;;;;;5072682;28;20102;-74
2021/10/31 09:38:18;;;;;;;11.02;3.42;;;12.40;99.90;;;;;;5087658;28;20051;-74
2021/10/31 09:40:45;;;;;;;3.80;1.40;;;12.40;99.90;;;;;;5071973;28;20499;-74
2021/10/31 09:43:14;;;;;;;6.88;1.92;;;12.50;99.90;;;;;;5072693;28;20466;-74
2021/10/31 09:45:43;;;;;;;8.25;2.40;;;12.60;99.90;;;;;;5088281;28;20180;-74
2021/10/31 09:48:12;;;;;;;8.18;2.60;;;12.60;99.90;;;;;;5088446;28;20048;-74
2021/10/31 09:50:49;;;;;;;5.88;1.88;;;12.60;99.90;;;;;;5088260;28;20484;-74
2021/10/31 09:53:19;;;;;;;10.30;3.63;;;12.60;99.90;;;;;;5089061;28;20048;-75
2021/10/31 09:55:47;;;;;;;18.92;2.67;;;12.60;99.90;;;;;;5088613;28;20315;-74
2021/10/31 09:58:19;;;;;;;6.70;2.33;;;12.70;99.90;;;;;;5089712;28;20048;-74
2021/10/31 10:00:48;;;;;;;6.55;2.67;;;12.70;99.90;;;;;;5088397;28;20078;-74
2021/10/31 10:03:36;;;;;;;7.95;2.30;;;12.70;99.90;;;;;;5101680;28;20120;-73
2021/10/31 10:06:21;;;;;;;8.93;2.50;;;12.70;99.90;;;;;;5088117;28;20528;-74
2021/10/31 10:08:59;;;;;;;9.48;2.58;;;12.70;99.90;;;;;;5074293;28;20040;-76
2021/10/31 10:11:27;;;;;;;6.85;2.05;;;12.70;99.90;;;;;;5088081;28;20052;-74
2021/10/31 10:14:24;;;;;;;8.68;2.92;;;12.60;99.90;;;;;;5087015;28;20040;-73
2021/10/31 10:16:57;;;;;;;6.45;1.98;;;12.60;99.90;;;;;;5070109;28;20052;-75
2021/10/31 10:19:26;;;;;;;5.15;2.15;;;12.60;99.90;;;;;;5086506;28;20044;-75
2021/10/31 10:22:00;;;;;;;7.90;2.80;;;12.60;99.90;;;;;;5087781;28;20176;-74
2021/10/31 10:24:29;;;;;;;8.55;2.53;;;12.60;99.90;;;;;;5088735;28;20048;-74
2021/10/31 10:27:01;;;;;;;6.75;2.75;;;12.60;99.90;;;;;;5086294;28;20040;-74
2021/10/31 10:29:30;;;;;;;52.65;36.20;;;12.60;99.90;;;;;;5054689;28;20105;-75
2021/10/31 10:32:02;;;;;;;;;;;12.60;99.90;;;;;;5089312;28;20411;-74
2021/10/31 10:34:53;;;;;;;4.50;2.45;;;12.50;99.90;;;;;;5074618;28;20347;-73
2021/10/31 10:37:29;;;;;;;8.65;2.72;;;12.50;99.90;;;;;;5087634;28;20441;-75
2021/10/31 10:40:02;;;;;;;9.85;2.95;;;12.50;99.90;;;;;;5083880;28;20411;-76
2021/10/31 10:42:43;;;;;;;4.22;1.45;;;12.50;99.90;;;;;;5085114;28;20066;-79
2021/10/31 10:45:12;;;;;;;2.47;1.35;;;12.40;99.90;;;;;;5084475;28;20097;-75
2021/10/31 10:47:58;;;;;;;5.03;1.60;;;12.40;99.90;;;;;;5069762;28;20044;-73
2021/10/31 10:50:25;;;;;;;4.93;1.92;;;12.40;99.90;;;;;;5089333;28;20044;-72
2021/10/31 10:52:54;;;;;;;8.87;3.30;;;12.30;99.90;;;;;;5089444;28;20066;-70
2021/10/31 10:55:27;;;;;;;8.48;2.22;;;12.30;99.90;;;;;;5089147;28;20299;-72
2021/10/31 10:58:00;;;;;;;13.55;2.88;;;12.30;99.90;;;;;;5089161;28;20486;-72
2021/10/31 11:00:34;;;;;;;12.15;3.30;;;12.30;99.90;;;;;;5089554;28;20101;-72
2021/10/31 11:03:06;;;;;;;11.57;4.00;;;12.40;99.90;;;;;;5090206;28;20040;-77
2021/10/31 11:05:43;;;;;;;10.10;4.53;;;12.50;99.90;;;;;;5104419;28;20515;-73
2021/10/31 11:08:10;;;;;;;11.32;2.67;;;12.50;99.90;;;;;;5074615;28;20468;-77
2021/10/31 11:10:46;;;;;;;21.08;10.23;;;12.60;99.90;;;;;;5088307;28;20102;-74
2021/10/31 11:13:13;;;;;;;19.30;10.32;;;12.70;99.90;;;;;;5090241;28;20040;-71
2021/10/31 11:15:40;;;;;;;12.95;3.78;;;12.70;99.90;;;;;;5088706;28;20051;-71
2021/10/31 11:18:08;;;;;;;9.60;3.42;;;12.80;99.90;;;;;;5090020;28;20056;-70
2021/10/31 11:20:37;;;;;;;11.65;3.13;;;12.70;99.90;;;;;;5088383;28;20044;-71
2021/10/31 11:23:08;;;;;;;10.65;4.80;;;12.40;99.90;;;;;;5087946;28;20155;-71
2021/10/31 11:25:37;;;;;;;9.68;2.92;;;12.20;99.90;;;;;;5078457;28;20051;-72
2021/10/31 11:28:05;;;;;;;3.90;2.00;;;12.10;99.90;;;;;;5093532;28;20067;-70
2021/10/31 11:30:33;;;;;;;6.60;1.80;;;12.10;99.90;;;;;;5090303;28;20091;-70
2021/10/31 11:33:01;;;;;;;15.43;4.83;;;12.20;99.90;;;;;;5089447;28;20047;-72
2021/10/31 11:35:28;;;;;;;12.82;2.92;;;12.30;99.90;;;;;;5089884;28;20289;-71
2021/10/31 11:38:09;;;;;;;6.88;2.13;;;12.30;99.90;;;;;;5072077;28;20075;-71
2021/10/31 11:40:41;;;;;;;18.63;3.20;;;12.30;99.90;;;;;;5070897;28;20059;-72
2021/10/31 11:43:15;;;;;;;10.35;2.90;;;12.30;99.90;;;;;;5072186;28;20048;-71
2021/10/31 11:45:43;;;;;;;10.77;3.20;;;12.20;99.90;;;;;;5072528;28;20051;-73
2021/10/31 11:48:18;;;;;;;13.70;2.63;;;12.20;99.90;;;;;;5091349;28;20127;-72
2021/10/31 11:51:04;;;;;;;14.30;3.30;;;12.20;99.90;;;;;;5091333;28;20078;-72
2021/10/31 11:53:44;;;;;;;13.20;3.97;;;12.20;99.90;;;;;;5090737;28;20048;-75
2021/10/31 11:56:19;;;;;;;;;;;12.20;99.90;;;;;;5091507;28;20044;-73
2021/10/31 11:58:51;;;;;;;20.50;4.63;;;12.20;99.90;;;;;;5092512;28;19920;-74
2021/10/31 12:01:23;;;;;;;15.73;3.40;;;12.20;99.90;;;;;;5073017;28;20162;-71
2021/10/31 12:03:50;;;;;;;19.27;3.95;;;12.20;99.90;;;;;;5091299;28;20040;-72
2021/10/31 12:06:25;;;;;;;21.98;4.43;;;12.30;99.90;;;;;;5090438;28;20074;-72
2021/10/31 12:09:18;;;;;;;20.90;4.22;;;12.30;99.90;;;;;;5091424;28;20080;-70
2021/10/31 12:11:45;;;;;;;16.35;3.60;;;12.30;99.90;;;;;;5092123;28;20109;-68
2021/10/31 12:14:12;;;;;;;16.25;4.40;;;12.30;99.90;;;;;;5090746;28;20491;-70
2021/10/31 12:16:58;;;;;;;14.70;4.00;;;12.40;99.90;;;;;;5090071;28;20048;-71
2021/10/31 12:19:38;;;;;;;20.52;4.13;;;12.40;99.90;;;;;;5090611;28;20517;-76
2021/10/31 12:22:09;;;;;;;230.52;163.70;;;12.50;99.90;;;;;;5089752;28;20511;-73
2021/10/31 12:24:51;;;;;;;37.80;15.98;;;12.50;99.90;;;;;;5057064;28;20048;-72
2021/10/31 12:27:23;;;;;;;18.52;5.57;;;12.50;99.90;;;;;;5084145;28;20044;-72
2021/10/31 12:30:30;;;;;;;15.23;3.60;;;12.40;99.90;;;;;;5089521;28;20055;-71
2021/10/31 12:33:04;;;;;;;12.32;3.38;;;12.30;99.90;;;;;;5077600;28;20051;-72
2021/10/31 12:35:35;;;;;;;18.55;3.78;;;12.30;99.90;;;;;;5089819;28;20407;-71
2021/10/31 12:38:22;;;;;;;24.40;4.57;;;12.30;99.90;;;;;;5090621;28;20044;-71
2021/10/31 12:41:11;;;;;;;30.05;6.32;;;12.30;99.90;;;;;;5075445;28;20056;-72
2021/10/31 12:43:44;;;;;;;20.25;3.58;;;12.40;99.90;;;;;;5091356;28;20058;-72
2021/10/31 12:46:14;;;;;;;15.68;2.90;;;12.50;99.90;;;;;;5089887;28;20052;-73
2021/10/31 12:48:41;;;;;;;16.70;4.50;;;12.60;99.90;;;;;;5090644;28;20048;-72
2021/10/31 12:51:16;;;;;;;21.80;5.10;;;12.60;99.90;;;;;;5073469;28;20048;-72
2021/10/31 12:53:44;;;;;;;22.15;4.45;;;12.60;99.90;;;;;;5090638;28;20101;-72
2021/10/31 12:56:11;;;;;;;19.17;5.43;;;12.60;99.90;;;;;;5089878;28;20051;-72
2021/10/31 12:58:38;;;;;;;24.15;4.75;;;12.70;99.90;;;;;;5090002;28;20092;-73
2021/10/31 13:01:05;;;;;;;27.08;6.60;;;12.70;99.90;;;;;;5091661;28;20046;-72
2021/10/31 13:03:32;;;;;;;18.80;4.18;;;12.70;99.90;;;;;;5089727;28;20505;-72